Explorer — C6TN4 — position and weather

sailwx.info

Track history (hours):
 
Tides and Currents Weather Stations Pressure Air Temp Water Temp Dewpoint Dewpoint Depression Visibility Wind Speed Wind Dir Waves Ship Positions

Explorer

Last reported at 2014-Aug-27 23:32 UTC. Time now 2014-Aug-29 08:04 UTC.
Position N 55°30' E 014°60'.

Length 180 m; draft 7.4 m.

Type: Passenger vessel. MMSI: 311705000.

Date/timePositionNaut miles runAvg speedWind from/ knotsBaromVisibWave heightAir tempDewpointWater temp
2014-Aug-27 23:32N 55°30' E 014°60'1212.0
2014-Aug-27 22:33N 55°24' E 014°42'1211.8
2014-Aug-27 21:33N 55°15' E 014°28'1212.0
2014-Aug-27 20:32N 55°05' E 014°16'1211.9
2014-Aug-27 19:33N 54°59' E 013°59'1212.2
2014-Aug-27 18:33N 54°55' E 013°38'1312.8
2014-Aug-27 17:33N 54°51' E 013°17'1211.8
2014-Aug-27 16:33N 54°48' E 012°58'1212.0
2014-Aug-27 15:34N 54°43' E 012°39'1212.2
2014-Aug-27 14:33N 54°36' E 012°21'1211.8
2014-Aug-27 13:33N 54°26' E 012°12'1211.9
2014-Aug-27 12:34N 54°24' E 011°52'91 3.8
2014-Aug-26 12:25N 54°06' E 009°20'7 8.2
2014-Aug-26 11:33N 53°59' E 009°17'7 7.5
2014-Aug-26 10:33N 53°54' E 009°09'2 1.6
2014-Aug-26 09:33N 53°53' E 009°06'0 0.2
2014-Aug-26 08:33N 53°53' E 009°06'2 2.0
2014-Aug-26 07:34N 53°52' E 009°03'1212.2
2014-Aug-26 06:33N 53°53' E 008°42'1313.0
2014-Aug-26 05:33N 53°59' E 008°23'9312.5
2014-Aug-25 22:09N 53°39' E 005°50'712.0
2014-Aug-25 21:34N 53°37' E 005°38'1212.0
2014-Aug-25 20:33N 53°33' E 005°19'1211.7
2014-Aug-25 19:34N 53°29' E 005°01'14712.3
2014-Aug-25 07:33N 51°37' E 002°24'1411.4
2014-Aug-25 06:17N 51°26' E 002°09'810.2
2014-Aug-25 05:33N 51°18' E 002°07'10 9.8
2014-Aug-25 04:33N 51°11' E 001°56'1110.9
2014-Aug-25 03:33N 51°05' E 001°42'4711.7
2014-Aug-24 23:29N 50°29' E 000°52'1111.9
2014-Aug-24 22:32N 50°26' E 000°35'5413.7
2014-Aug-24 18:33N 50°34' W 000°49'1615.7
2014-Aug-24 17:33N 50°45' W 001°07'1111.0
2014-Aug-24 16:33N 50°51' W 001°21'3 3.2
2014-Aug-24 15:28N 50°54' W 001°25'0 0.0
2014-Aug-24 14:28N 50°54' W 001°25'0 0.0
2014-Aug-24 13:31N 50°54' W 001°25'0 0.0
2014-Aug-24 12:31N 50°54' W 001°25'0 0.0
2014-Aug-24 11:31N 50°54' W 001°25'0 0.0
2014-Aug-24 10:31N 50°54' W 001°25'0 0.0
2014-Aug-24 09:28N 50°54' W 001°25'0 0.0
2014-Aug-24 00:10N 50°54' W 001°25'0 0.0
2014-Aug-23 23:10N 50°54' W 001°25'0 0.0
2014-Aug-23 20:10N 50°54' W 001°25'1 0.0
2014-Aug-22 12:11N 50°53' W 001°24'0 0.0
2014-Aug-22 11:32N 50°53' W 001°24'0 0.0
2014-Aug-22 10:26N 50°53' W 001°24'0 0.0
2014-Aug-21 07:05N 50°53' W 001°24'2 3.9
2014-Aug-21 06:32N 50°52' W 001°21'9 9.2
2014-Aug-21 05:33N 50°46' W 001°11'1211.8
2014-Aug-21 04:32N 50°39' W 000°55'10 9.9
2014-Aug-21 03:34N 50°36' W 000°40'1110.8
2014-Aug-21 02:34N 50°34' W 000°24'2610.8
2014-Aug-21 00:11N 50°35' E 000°17'711.7
2014-Aug-20 23:33N 50°37' E 000°28'1111.5
2014-Aug-20 22:34N 50°42' E 000°44'1312.1
2014-Aug-20 21:27N 50°50' E 001°01'2211.4
2014-Aug-20 19:34N 51°04' E 001°27'1111.5
2014-Aug-20 18:34N 51°11' E 001°41'1110.9
2014-Aug-20 17:34N 51°20' E 001°51'1211.8
2014-Aug-20 16:33N 51°30' E 002°01'15511.9
2014-Aug-20 03:30N 53°29' E 004°44'1112.1
2014-Aug-20 02:33N 53°34' E 005°02'1211.8
2014-Aug-20 01:33N 53°38' E 005°20'1211.6
2014-Aug-20 00:33N 53°42' E 005°39'1211.7
2014-Aug-19 23:33N 53°46' E 005°58'5512.3
2014-Aug-19 19:03N 53°60' E 007°29'612.8
2014-Aug-19 18:33N 54°01' E 007°39'1312.7
2014-Aug-19 17:33N 54°01' E 008°01'1212.0
2014-Aug-19 16:33N 53°60' E 008°21'1515.5
2014-Aug-19 15:34N 53°52' E 008°44'1514.5
2014-Aug-19 14:33N 53°53' E 009°08'1 1.1
2014-Aug-19 13:33N 53°54' E 009°10'8 8.1
2014-Aug-19 12:34N 54°01' E 009°18'9 8.0
2014-Aug-19 11:29N 54°09' E 009°22'84 7.4
2014-Aug-19 00:06N 54°27' E 011°43'611.3
2014-Aug-18 23:32N 54°26' E 011°54'1010.7
2014-Aug-18 22:34N 54°27' E 012°11'1111.3
2014-Aug-18 21:33N 54°37' E 012°20'1311.8
2014-Aug-18 20:27N 54°45' E 012°39'1011.1
2014-Aug-18 19:30N 54°46' E 012°57'1111.7
2014-Aug-18 18:34N 54°47' E 013°16'1111.4
2014-Aug-18 17:34N 54°46' E 013°36'1111.2
2014-Aug-18 16:34N 54°43' E 013°54'13710.2
2014-Aug-18 03:05N 54°59' E 017°51'710.8
2014-Aug-18 02:28N 54°58' E 018°02'1010.6
2014-Aug-18 01:33N 54°58' E 018°19'1110.9
2014-Aug-18 00:33N 54°56' E 018°38'  
Track history (hours):
 
Tides and Currents Weather Stations Pressure Air Temp Water Temp Dewpoint Dewpoint Depression Visibility Wind Speed Wind Dir Waves Ship Positions

Explorer

Last reported at 2014-Aug-27 23:32 UTC. Time now 2014-Aug-29 08:04 UTC.
Position N 55°30' E 014°60'.

Length 180 m; draft 7.4 m.

Type: Passenger vessel. MMSI: 311705000.

Date/timePositionNaut miles runAvg speedWind from/ knotsBaromVisibWave heightAir tempDewpointWater temp
2014-Aug-27 23:32N 55°30' E 014°60'1212.0
2014-Aug-27 22:33N 55°24' E 014°42'1211.8
2014-Aug-27 21:33N 55°15' E 014°28'1212.0
2014-Aug-27 20:32N 55°05' E 014°16'1211.9
2014-Aug-27 19:33N 54°59' E 013°59'1212.2
2014-Aug-27 18:33N 54°55' E 013°38'1312.8
2014-Aug-27 17:33N 54°51' E 013°17'1211.8
2014-Aug-27 16:33N 54°48' E 012°58'1212.0
2014-Aug-27 15:34N 54°43' E 012°39'1212.2
2014-Aug-27 14:33N 54°36' E 012°21'1211.8
2014-Aug-27 13:33N 54°26' E 012°12'1211.9
2014-Aug-27 12:34N 54°24' E 011°52'91 3.8
2014-Aug-26 12:25N 54°06' E 009°20'7 8.2
2014-Aug-26 11:33N 53°59' E 009°17'7 7.5
2014-Aug-26 10:33N 53°54' E 009°09'2 1.6
2014-Aug-26 09:33N 53°53' E 009°06'0 0.2
2014-Aug-26 08:33N 53°53' E 009°06'2 2.0
2014-Aug-26 07:34N 53°52' E 009°03'1212.2
2014-Aug-26 06:33N 53°53' E 008°42'1313.0
2014-Aug-26 05:33N 53°59' E 008°23'9312.5
2014-Aug-25 22:09N 53°39' E 005°50'712.0
2014-Aug-25 21:34N 53°37' E 005°38'1212.0
2014-Aug-25 20:33N 53°33' E 005°19'1211.7
2014-Aug-25 19:34N 53°29' E 005°01'14712.3
2014-Aug-25 07:33N 51°37' E 002°24'1411.4
2014-Aug-25 06:17N 51°26' E 002°09'810.2
2014-Aug-25 05:33N 51°18' E 002°07'10 9.8
2014-Aug-25 04:33N 51°11' E 001°56'1110.9
2014-Aug-25 03:33N 51°05' E 001°42'4711.7
2014-Aug-24 23:29N 50°29' E 000°52'1111.9
2014-Aug-24 22:32N 50°26' E 000°35'5413.7
2014-Aug-24 18:33N 50°34' W 000°49'1615.7
2014-Aug-24 17:33N 50°45' W 001°07'1111.0
2014-Aug-24 16:33N 50°51' W 001°21'3 3.2
2014-Aug-24 15:28N 50°54' W 001°25'0 0.0
2014-Aug-24 14:28N 50°54' W 001°25'0 0.0
2014-Aug-24 13:31N 50°54' W 001°25'0 0.0
2014-Aug-24 12:31N 50°54' W 001°25'0 0.0
2014-Aug-24 11:31N 50°54' W 001°25'0 0.0
2014-Aug-24 10:31N 50°54' W 001°25'0 0.0
2014-Aug-24 09:28N 50°54' W 001°25'0 0.0
2014-Aug-24 00:10N 50°54' W 001°25'0 0.0
2014-Aug-23 23:10N 50°54' W 001°25'0 0.0
2014-Aug-23 20:10N 50°54' W 001°25'1 0.0
2014-Aug-22 12:11N 50°53' W 001°24'0 0.0
2014-Aug-22 11:32N 50°53' W 001°24'0 0.0
2014-Aug-22 10:26N 50°53' W 001°24'0 0.0
2014-Aug-21 07:05N 50°53' W 001°24'2 3.9
2014-Aug-21 06:32N 50°52' W 001°21'9 9.2
2014-Aug-21 05:33N 50°46' W 001°11'1211.8
2014-Aug-21 04:32N 50°39' W 000°55'10 9.9
2014-Aug-21 03:34N 50°36' W 000°40'1110.8
2014-Aug-21 02:34N 50°34' W 000°24'2610.8
2014-Aug-21 00:11N 50°35' E 000°17'711.7
2014-Aug-20 23:33N 50°37' E 000°28'1111.5
2014-Aug-20 22:34N 50°42' E 000°44'1312.1
2014-Aug-20 21:27N 50°50' E 001°01'2211.4
2014-Aug-20 19:34N 51°04' E 001°27'1111.5
2014-Aug-20 18:34N 51°11' E 001°41'1110.9
2014-Aug-20 17:34N 51°20' E 001°51'1211.8
2014-Aug-20 16:33N 51°30' E 002°01'15511.9
2014-Aug-20 03:30N 53°29' E 004°44'1112.1
2014-Aug-20 02:33N 53°34' E 005°02'1211.8
2014-Aug-20 01:33N 53°38' E 005°20'1211.6
2014-Aug-20 00:33N 53°42' E 005°39'1211.7
2014-Aug-19 23:33N 53°46' E 005°58'5512.3
2014-Aug-19 19:03N 53°60' E 007°29'612.8
2014-Aug-19 18:33N 54°01' E 007°39'1312.7
2014-Aug-19 17:33N 54°01' E 008°01'1212.0
2014-Aug-19 16:33N 53°60' E 008°21'1515.5
2014-Aug-19 15:34N 53°52' E 008°44'1514.5
2014-Aug-19 14:33N 53°53' E 009°08'1 1.1
2014-Aug-19 13:33N 53°54' E 009°10'8 8.1
2014-Aug-19 12:34N 54°01' E 009°18'9 8.0
2014-Aug-19 11:29N 54°09' E 009°22'84 7.4
2014-Aug-19 00:06N 54°27' E 011°43'611.3
2014-Aug-18 23:32N 54°26' E 011°54'1010.7
2014-Aug-18 22:34N 54°27' E 012°11'1111.3
2014-Aug-18 21:33N 54°37' E 012°20'1311.8
2014-Aug-18 20:27N 54°45' E 012°39'1011.1
2014-Aug-18 19:30N 54°46' E 012°57'1111.7
2014-Aug-18 18:34N 54°47' E 013°16'1111.4
2014-Aug-18 17:34N 54°46' E 013°36'1111.2
2014-Aug-18 16:34N 54°43' E 013°54'13710.2
2014-Aug-18 03:05N 54°59' E 017°51'710.8
2014-Aug-18 02:28N 54°58' E 018°02'1010.6
2014-Aug-18 01:33N 54°58' E 018°19'1110.9
2014-Aug-18 00:33N 54°56' E 018°38'  

Dump ship's entire track history